createdAt,value
2022-08-08T00:00:53.447Z,4.00
2022-08-08T00:02:03.493Z,3.97
2022-08-08T00:04:16.116Z,5.35
2022-08-08T00:06:34.144Z,3.80
2022-08-08T00:08:37.068Z,3.60
2022-08-08T00:10:49.758Z,4.20
2022-08-08T00:12:56.493Z,4.13
2022-08-08T00:15:03.495Z,4.65
2022-08-08T00:17:22.561Z,4.57
2022-08-08T00:19:30.672Z,4.57
2022-08-08T00:21:39.794Z,4.45
2022-08-08T00:23:51.449Z,4.25
2022-08-08T00:25:56.415Z,4.53
2022-08-08T00:28:00.400Z,4.30
2022-08-08T00:30:06.360Z,4.10
2022-08-08T00:32:35.157Z,4.43
2022-08-08T00:35:04.101Z,4.57
2022-08-08T00:37:47.349Z,4.70
2022-08-08T00:41:09.360Z,4.28
2022-08-08T00:42:36.793Z,4.45
2022-08-08T00:44:47.352Z,4.60
2022-08-08T00:47:14.206Z,4.20
2022-08-08T00:49:40.046Z,4.45
2022-08-08T00:51:43.819Z,4.68
2022-08-08T00:54:04.197Z,4.65
2022-08-08T00:56:16.262Z,4.10
2022-08-08T00:58:36.480Z,4.43
2022-08-08T01:00:52.024Z,4.40
2022-08-08T01:03:57.655Z,4.20
2022-08-08T01:05:59.649Z,3.60
2022-08-08T01:08:05.660Z,4.90
2022-08-08T01:10:32.055Z,4.15
2022-08-08T01:12:52.518Z,4.10
2022-08-08T01:15:26.027Z,4.82
2022-08-08T01:17:55.723Z,4.65
2022-08-08T01:20:05.734Z,4.43
2022-08-08T01:22:15.650Z,4.07
2022-08-08T01:24:33.575Z,4.63
2022-08-08T01:26:39.279Z,4.13
2022-08-08T01:29:09.271Z,3.60
2022-08-08T01:32:15.007Z,4.13
2022-08-08T01:33:54.366Z,3.65
2022-08-08T01:36:32.246Z,3.38
2022-08-08T01:38:36.725Z,3.38
2022-08-08T01:40:45.217Z,4.30
2022-08-08T01:43:06.307Z,5.00
2022-08-08T01:45:31.820Z,4.80
2022-08-08T01:48:16.542Z,3.20
2022-08-08T01:50:06.816Z,4.43
2022-08-08T01:52:59.288Z,3.95
2022-08-08T01:55:16.780Z,3.50
2022-08-08T01:57:03.905Z,3.67
2022-08-08T01:59:38.162Z,4.40
2022-08-08T02:02:03.078Z,4.18
2022-08-08T02:04:23.469Z,4.25
2022-08-08T02:06:36.647Z,4.32
2022-08-08T02:08:54.346Z,4.57
2022-08-08T02:11:23.741Z,4.25
2022-08-08T02:13:55.630Z,3.92
2022-08-08T02:16:03.120Z,4.47
2022-08-08T02:18:17.491Z,3.83
2022-08-08T02:21:01.379Z,3.63
2022-08-08T02:23:02.083Z,3.95
2022-08-08T02:25:22.968Z,3.75
2022-08-08T02:27:42.313Z,4.18
2022-08-08T02:30:03.258Z,3.78
2022-08-08T02:32:26.135Z,4.53
2022-08-08T02:34:33.116Z,4.00
2022-08-08T02:36:51.403Z,4.30
2022-08-08T02:39:02.594Z,3.47
2022-08-08T02:42:03.806Z,3.70
2022-08-08T02:44:38.437Z,3.65
2022-08-08T02:46:35.445Z,3.75
2022-08-08T02:48:49.078Z,3.55
2022-08-08T02:51:11.893Z,3.58
2022-08-08T02:53:32.862Z,3.53
2022-08-08T02:55:59.985Z,3.95
2022-08-08T02:58:15.128Z,3.55
2022-08-08T03:00:35.364Z,2.85
2022-08-08T03:02:57.052Z,2.88
2022-08-08T03:05:17.394Z,3.13
2022-08-08T03:07:19.505Z,3.70
2022-08-08T03:09:41.319Z,3.05
2022-08-08T03:11:48.093Z,3.22
2022-08-08T03:16:00.167Z,3.05
2022-08-08T03:16:35.379Z,3.40
2022-08-08T03:18:37.541Z,3.15
2022-08-08T03:20:52.183Z,2.83
2022-08-08T03:22:56.901Z,3.10
2022-08-08T03:25:00.757Z,2.90
2022-08-08T03:27:13.182Z,2.77
2022-08-08T03:29:38.091Z,2.65
2022-08-08T03:32:05.846Z,3.25
2022-08-08T03:34:14.129Z,2.63
2022-08-08T03:36:20.005Z,2.72
2022-08-08T03:38:57.411Z,3.25
2022-08-08T03:40:52.198Z,2.13
2022-08-08T03:42:53.938Z,2.25
2022-08-08T03:44:55.503Z,2.97
2022-08-08T03:46:56.939Z,3.13
2022-08-08T03:49:09.958Z,2.50
2022-08-08T03:51:40.034Z,2.83
2022-08-08T03:53:47.630Z,3.05
2022-08-08T03:55:55.937Z,2.78
2022-08-08T03:58:31.722Z,2.10
2022-08-08T04:00:22.642Z,3.00
2022-08-08T04:02:36.590Z,2.60
2022-08-08T04:04:49.270Z,2.92
2022-08-08T04:06:58.122Z,2.55
2022-08-08T04:09:10.317Z,3.10
2022-08-08T04:11:17.302Z,2.92
2022-08-08T04:13:22.305Z,2.10
2022-08-08T04:15:24.926Z,2.70
2022-08-08T04:17:57.807Z,2.53
2022-08-08T04:20:02.018Z,2.78
2022-08-08T04:22:06.155Z,2.92
2022-08-08T04:24:19.102Z,2.67
2022-08-08T04:26:21.321Z,2.50
2022-08-08T04:28:36.993Z,3.08
2022-08-08T04:30:44.421Z,2.85
2022-08-08T04:32:50.131Z,2.60
2022-08-08T04:34:58.311Z,2.97
2022-08-08T04:37:03.746Z,2.38
2022-08-08T04:40:04.092Z,2.58
2022-08-08T04:41:36.507Z,2.75
2022-08-08T04:43:45.987Z,2.55
2022-08-08T04:45:50.282Z,2.15
2022-08-08T04:47:53.317Z,2.28
2022-08-08T04:49:55.259Z,2.35
2022-08-08T04:52:00.728Z,2.08
2022-08-08T04:54:38.726Z,2.10
2022-08-08T04:56:27.141Z,2.80
2022-08-08T04:58:28.571Z,2.35
2022-08-08T05:00:31.040Z,2.42
2022-08-08T05:02:32.642Z,2.35
2022-08-08T05:04:34.551Z,2.50
2022-08-08T05:06:36.405Z,2.53
2022-08-08T05:08:43.791Z,2.60
2022-08-08T05:10:45.382Z,2.38
2022-08-08T05:12:59.931Z,1.95
2022-08-08T05:15:04.471Z,2.03
2022-08-08T05:17:09.039Z,2.00
2022-08-08T05:20:12.354Z,2.38
2022-08-08T05:21:43.655Z,1.90
2022-08-08T05:24:04.404Z,1.77
2022-08-08T05:26:10.210Z,1.88
2022-08-08T05:28:16.064Z,2.20
2022-08-08T05:30:38.297Z,1.95
2022-08-08T05:32:40.134Z,2.15
2022-08-08T05:34:46.586Z,2.17
2022-08-08T05:36:48.134Z,2.28
2022-08-08T05:38:52.351Z,2.75
2022-08-08T05:40:57.812Z,2.30
2022-08-08T05:43:38.774Z,1.90
2022-08-08T05:45:31.238Z,2.25
2022-08-08T05:47:52.548Z,1.98
2022-08-08T05:50:05.355Z,1.90
2022-08-08T05:52:09.720Z,2.05
2022-08-08T05:54:27.261Z,2.03
2022-08-08T05:56:36.943Z,2.17
2022-08-08T05:58:58.006Z,2.03
2022-08-08T06:01:04.956Z,2.38
2022-08-08T06:03:17.608Z,1.80
2022-08-08T06:05:34.671Z,1.45
2022-08-08T06:07:46.119Z,2.25
2022-08-08T06:10:00.822Z,2.40
2022-08-08T06:12:04.534Z,1.73
2022-08-08T06:14:07.195Z,2.05
2022-08-08T06:16:14.485Z,2.25
2022-08-08T06:18:20.231Z,2.08
2022-08-08T06:20:23.131Z,1.55
2022-08-08T06:22:35.117Z,1.70
2022-08-08T06:24:36.815Z,2.38
2022-08-08T06:26:44.059Z,1.65
2022-08-08T06:28:54.113Z,1.90
2022-08-08T06:30:58.533Z,1.58
2022-08-08T06:33:01.374Z,1.42
2022-08-08T06:36:03.905Z,1.60
2022-08-08T06:37:37.053Z,2.47
2022-08-08T06:39:55.873Z,1.00
2022-08-08T06:41:59.157Z,0.90
2022-08-08T06:44:04.556Z,0.93
2022-08-08T06:46:09.027Z,0.90
2022-08-08T06:48:10.927Z,0.73
2022-08-08T06:50:12.884Z,0.65
2022-08-08T06:52:19.706Z,0.80
2022-08-08T06:54:22.435Z,1.02
2022-08-08T06:56:25.087Z,0.90
2022-08-08T07:00:34.395Z,0.68
2022-08-08T07:04:58.524Z,0.70
2022-08-08T07:07:10.435Z,1.10
2022-08-08T07:09:17.868Z,0.60
2022-08-08T07:11:24.809Z,0.70
2022-08-08T07:18:01.939Z,0.90
2022-08-08T07:22:19.340Z,0.80
2022-08-08T07:24:34.432Z,1.30
2022-08-08T07:26:37.974Z,1.27
2022-08-08T07:30:41.651Z,1.00
2022-08-08T07:32:44.705Z,0.88
2022-08-08T07:35:00.170Z,0.73
2022-08-08T07:37:12.035Z,0.90
2022-08-08T07:39:16.705Z,0.68
2022-08-08T07:41:24.791Z,0.85
2022-08-08T07:43:36.940Z,1.02
2022-08-08T07:46:04.777Z,0.90
2022-08-08T07:48:02.708Z,0.73
2022-08-08T07:50:07.128Z,0.75
2022-08-08T07:52:13.355Z,1.10
2022-08-08T07:54:36.587Z,1.00
2022-08-08T07:57:00.102Z,1.10
2022-08-08T07:59:06.024Z,1.10
2022-08-08T08:01:16.132Z,0.85
2022-08-08T08:03:43.725Z,0.70
2022-08-08T08:05:50.794Z,1.33
2022-08-08T08:07:55.842Z,0.88
2022-08-08T08:10:04.584Z,1.08
2022-08-08T08:12:07.278Z,1.15
2022-08-08T08:14:11.418Z,1.70
2022-08-08T08:16:20.362Z,1.10
2022-08-08T08:18:32.451Z,0.88
2022-08-08T08:20:34.893Z,0.93
2022-08-08T08:22:36.719Z,1.17
2022-08-08T08:24:38.249Z,1.40
2022-08-08T08:26:52.589Z,1.20
2022-08-08T08:28:56.274Z,1.13
2022-08-08T08:31:04.904Z,1.03
2022-08-08T08:33:07.070Z,1.10
2022-08-08T08:35:13.301Z,1.33
2022-08-08T08:37:20.490Z,0.80
2022-08-08T08:39:22.909Z,1.17
2022-08-08T08:41:25.303Z,1.40
2022-08-08T08:43:30.858Z,1.50
2022-08-08T08:45:32.499Z,0.93
2022-08-08T08:47:43.840Z,1.40
2022-08-08T08:51:51.664Z,1.05
2022-08-08T08:53:59.936Z,1.10
2022-08-08T08:56:05.963Z,1.17
2022-08-08T08:58:19.606Z,1.13
2022-08-08T09:00:21.243Z,1.23
2022-08-08T09:02:26.433Z,1.00
2022-08-08T09:04:37.959Z,1.55
2022-08-08T09:08:54.515Z,1.10
2022-08-08T09:10:56.741Z,1.58
2022-08-08T09:13:00.321Z,1.80
2022-08-08T09:15:02.985Z,1.15
2022-08-08T09:17:12.884Z,1.08
2022-08-08T09:19:29.117Z,1.70
2022-08-08T09:21:59.580Z,1.15
2022-08-08T09:24:01.069Z,1.40
2022-08-08T09:26:25.855Z,1.88
2022-08-08T09:28:38.366Z,0.90
2022-08-08T09:30:42.852Z,1.50
2022-08-08T09:33:54.987Z,1.52
2022-08-08T09:35:18.278Z,1.23
2022-08-08T09:37:34.079Z,1.17
2022-08-08T09:39:59.702Z,0.90
2022-08-08T09:42:20.649Z,1.13
2022-08-08T09:44:29.905Z,1.00
2022-08-08T09:46:38.755Z,1.02
2022-08-08T09:48:42.971Z,1.00
2022-08-08T09:50:50.641Z,1.35
2022-08-08T09:52:56.669Z,1.05
2022-08-08T09:55:02.624Z,1.33
2022-08-08T09:57:16.427Z,1.23
2022-08-08T10:00:01.929Z,1.13
2022-08-08T10:02:00.089Z,1.10
2022-08-08T10:04:08.812Z,1.35
2022-08-08T10:06:14.530Z,1.27
2022-08-08T10:08:16.486Z,0.98
2022-08-08T10:10:30.454Z,1.02
2022-08-08T10:12:52.975Z,1.02
2022-08-08T10:14:59.589Z,0.80
2022-08-08T10:17:03.515Z,0.88
2022-08-08T10:19:45.808Z,0.60
2022-08-08T10:21:51.228Z,0.82
2022-08-08T10:23:58.247Z,0.63
2022-08-08T10:26:04.639Z,0.90
2022-08-08T10:28:27.105Z,0.98
2022-08-08T10:30:56.981Z,1.10
2022-08-08T10:33:00.388Z,0.88
2022-08-08T10:35:20.216Z,0.80
2022-08-08T10:37:34.414Z,1.10
2022-08-08T10:39:53.606Z,1.02
2022-08-08T10:42:16.851Z,1.30
2022-08-08T10:44:24.228Z,1.63
2022-08-08T10:46:30.223Z,0.95
2022-08-08T10:48:35.906Z,0.90
2022-08-08T10:50:42.539Z,1.25
2022-08-08T10:52:44.534Z,0.93
2022-08-08T10:54:53.509Z,0.60
2022-08-08T10:56:56.463Z,0.95
2022-08-08T10:58:58.636Z,1.20
2022-08-08T11:01:10.897Z,1.17
2022-08-08T11:03:15.799Z,0.80
2022-08-08T11:05:18.076Z,1.05
2022-08-08T11:09:47.406Z,0.90
2022-08-08T11:12:05.193Z,0.80
2022-08-08T11:14:16.037Z,0.88
2022-08-08T11:16:33.086Z,0.95
2022-08-08T11:18:36.662Z,0.88
2022-08-08T11:20:38.576Z,0.82
2022-08-08T11:22:40.802Z,1.10
2022-08-08T11:24:42.757Z,0.82
2022-08-08T11:26:56.637Z,0.80
2022-08-08T11:29:01.454Z,0.80
2022-08-08T11:31:04.689Z,1.00
2022-08-08T11:33:12.314Z,0.85
2022-08-08T11:35:27.686Z,0.77
2022-08-08T11:38:35.701Z,0.80
2022-08-08T11:40:00.161Z,0.70
2022-08-08T11:42:02.962Z,0.60
2022-08-08T11:44:13.402Z,0.90
2022-08-08T11:46:18.373Z,0.90
2022-08-08T11:48:20.878Z,0.63
2022-08-08T11:50:23.614Z,0.75
2022-08-08T11:52:27.326Z,0.60
2022-08-08T11:54:44.764Z,0.93
2022-08-08T11:56:56.531Z,0.70
2022-08-08T11:59:09.681Z,1.07
2022-08-08T12:01:17.296Z,1.50
2022-08-08T12:03:21.121Z,0.70
2022-08-08T12:05:33.919Z,1.02
2022-08-08T12:07:45.373Z,0.90
2022-08-08T12:09:59.699Z,0.57
2022-08-08T12:12:03.675Z,0.75
2022-08-08T12:14:05.458Z,1.08
2022-08-08T12:16:12.943Z,0.73
2022-08-08T12:18:24.527Z,0.60
2022-08-08T12:20:36.699Z,1.40
2022-08-08T12:22:57.106Z,0.50
2022-08-08T12:24:59.348Z,0.63
2022-08-08T12:27:03.291Z,0.60
2022-08-08T12:29:19.233Z,0.90
2022-08-08T12:31:30.372Z,0.93
2022-08-08T12:34:01.767Z,0.70
2022-08-08T12:36:14.200Z,0.75
2022-08-08T12:38:18.158Z,0.50
2022-08-08T12:40:24.070Z,0.60
2022-08-08T12:42:26.484Z,0.70
2022-08-08T12:44:33.657Z,0.50
2022-08-08T12:46:35.634Z,0.70
2022-08-08T12:48:38.780Z,0.73
2022-08-08T12:50:41.481Z,0.63
2022-08-08T12:52:54.611Z,0.70
2022-08-08T12:55:09.361Z,0.75
2022-08-08T12:57:17.580Z,0.60
2022-08-08T12:59:27.403Z,0.45
2022-08-08T13:01:51.526Z,0.65
2022-08-08T13:03:53.645Z,0.85
2022-08-08T13:08:15.837Z,0.70
2022-08-08T13:10:19.167Z,0.80
2022-08-08T13:12:32.536Z,0.70
2022-08-08T13:14:38.959Z,0.70
2022-08-08T13:16:55.011Z,0.80
2022-08-08T13:19:09.180Z,0.70
2022-08-08T13:21:16.437Z,0.98
2022-08-08T13:23:41.331Z,0.70
2022-08-08T13:25:43.512Z,0.93
2022-08-08T13:27:45.341Z,0.80
2022-08-08T13:29:51.291Z,0.77
2022-08-08T13:31:54.583Z,0.75
2022-08-08T13:33:57.105Z,0.77
2022-08-08T13:36:05.602Z,0.70
2022-08-08T13:38:08.582Z,0.63
2022-08-08T13:40:17.544Z,0.60
2022-08-08T13:42:28.882Z,0.60
2022-08-08T13:44:31.323Z,0.95
2022-08-08T13:46:33.259Z,0.87
2022-08-08T13:48:42.899Z,0.50
2022-08-08T13:50:52.010Z,0.60
2022-08-08T13:52:57.215Z,0.80
2022-08-08T13:55:00.195Z,0.63
2022-08-08T13:59:04.571Z,0.90
2022-08-08T14:01:16.792Z,1.00
2022-08-08T14:03:53.920Z,1.02
2022-08-08T14:05:58.873Z,0.90
2022-08-08T14:08:11.584Z,0.80
2022-08-08T14:10:33.543Z,0.77
2022-08-08T14:12:39.895Z,0.77
2022-08-08T14:14:46.971Z,1.17
2022-08-08T14:16:50.160Z,1.35
2022-08-08T14:18:53.898Z,1.65
2022-08-08T14:21:03.804Z,1.10
2022-08-08T14:23:21.198Z,1.35
2022-08-08T14:25:54.015Z,1.23
2022-08-08T14:28:07.615Z,1.60
2022-08-08T14:30:18.328Z,1.23
2022-08-08T14:32:27.646Z,1.17
2022-08-08T14:34:31.955Z,1.17
2022-08-08T14:36:34.974Z,1.25
2022-08-08T14:38:52.183Z,1.05
2022-08-08T14:40:59.342Z,1.05
2022-08-08T14:43:22.323Z,1.58
2022-08-08T14:46:01.396Z,1.40
2022-08-08T14:47:51.239Z,1.00
2022-08-08T14:50:10.028Z,1.50
2022-08-08T14:52:13.853Z,1.10
2022-08-08T14:54:16.277Z,1.10
2022-08-08T14:56:30.136Z,1.55
2022-08-08T15:00:35.071Z,1.40
2022-08-08T15:02:58.213Z,0.98
2022-08-08T15:05:08.321Z,1.55
2022-08-08T15:07:22.565Z,1.55
2022-08-08T15:09:26.031Z,1.30
2022-08-08T15:11:28.819Z,1.40
2022-08-08T15:14:01.869Z,1.25
2022-08-08T15:16:03.913Z,1.10
2022-08-08T15:18:06.638Z,1.13
2022-08-08T15:20:14.311Z,1.08
2022-08-08T15:22:18.065Z,1.10
2022-08-08T15:24:31.060Z,1.52
2022-08-08T15:26:33.029Z,1.20
2022-08-08T15:28:35.118Z,1.83
2022-08-08T15:30:36.674Z,1.17
2022-08-08T15:32:38.408Z,1.50
2022-08-08T15:34:40.360Z,1.80
2022-08-08T15:36:42.510Z,1.20
2022-08-08T15:38:50.460Z,1.52
2022-08-08T15:40:52.682Z,1.27
2022-08-08T15:42:54.350Z,1.10
2022-08-08T15:44:56.509Z,1.83
2022-08-08T15:46:58.295Z,1.20
2022-08-08T15:49:00.118Z,1.30
2022-08-08T15:51:01.840Z,2.45
2022-08-08T15:53:04.732Z,1.05
2022-08-08T15:55:09.410Z,1.13
2022-08-08T15:57:12.371Z,1.05
2022-08-08T15:59:14.109Z,1.67
2022-08-08T16:01:15.872Z,1.40
2022-08-08T16:03:17.483Z,0.98
2022-08-08T16:05:20.008Z,1.45
2022-08-08T16:07:21.907Z,1.10
2022-08-08T16:13:02.147Z,1.38
2022-08-08T16:13:10.683Z,1.27
2022-08-08T16:14:15.913Z,1.40
2022-08-08T16:16:29.170Z,1.60
2022-08-08T16:18:32.266Z,1.75
2022-08-08T16:20:34.850Z,1.92
2022-08-08T16:22:37.090Z,0.95
2022-08-08T16:24:38.698Z,1.13
2022-08-08T16:26:42.348Z,1.40
2022-08-08T16:28:45.750Z,1.38
2022-08-08T16:30:47.867Z,1.40
2022-08-08T16:32:49.850Z,1.30
2022-08-08T16:34:51.450Z,1.10
2022-08-08T16:36:52.894Z,1.20
2022-08-08T16:38:56.753Z,2.00
2022-08-08T16:41:01.911Z,1.13
2022-08-08T16:43:03.815Z,1.27
2022-08-08T16:46:35.618Z,1.20
2022-08-08T16:47:40.703Z,1.10
2022-08-08T16:49:43.685Z,1.20
2022-08-08T16:55:00.748Z,0.98
2022-08-08T16:55:01.399Z,1.25
2022-08-08T16:56:30.040Z,1.45
2022-08-08T16:58:34.796Z,1.23
2022-08-08T17:00:36.410Z,1.00
2022-08-08T17:02:39.903Z,1.17
2022-08-08T17:06:44.182Z,1.60
2022-08-08T17:08:45.999Z,1.45
2022-08-08T17:10:57.951Z,1.40
2022-08-08T17:13:10.798Z,1.17
2022-08-08T17:15:17.656Z,1.30
2022-08-08T17:18:00.916Z,1.20
2022-08-08T17:19:46.618Z,0.95
2022-08-08T17:21:51.005Z,1.17
2022-08-08T17:24:01.676Z,1.20
2022-08-08T17:26:05.274Z,1.30
2022-08-08T17:28:07.974Z,1.17
2022-08-08T17:30:27.400Z,1.13
2022-08-08T17:32:34.323Z,1.13
2022-08-08T17:35:52.216Z,1.55
2022-08-08T17:37:16.431Z,1.00
2022-08-08T17:39:46.034Z,1.10
2022-08-08T17:41:47.990Z,1.20
2022-08-08T17:44:00.455Z,1.70
2022-08-08T17:46:03.331Z,1.10
2022-08-08T17:48:05.243Z,1.17
2022-08-08T17:50:10.638Z,1.17
2022-08-08T17:52:12.549Z,1.77
2022-08-08T17:54:22.584Z,1.55
2022-08-08T17:56:27.726Z,1.20
2022-08-08T17:58:32.097Z,1.13
2022-08-08T18:00:38.911Z,0.90
2022-08-08T18:02:41.007Z,1.02
2022-08-08T18:04:54.985Z,1.53
2022-08-08T18:06:57.192Z,1.08
2022-08-08T18:08:59.096Z,1.65
2022-08-08T18:11:25.246Z,1.42
2022-08-08T18:13:34.903Z,1.27
2022-08-08T18:15:44.984Z,1.42
2022-08-08T18:18:27.166Z,1.23
2022-08-08T18:20:43.653Z,1.23
2022-08-08T18:22:37.610Z,1.27
2022-08-08T18:24:51.724Z,1.25
2022-08-08T18:26:56.603Z,1.05
2022-08-08T18:28:58.439Z,1.00
2022-08-08T18:33:04.318Z,1.00
2022-08-08T18:35:15.719Z,1.40
2022-08-08T18:37:34.204Z,1.77
2022-08-08T18:39:41.335Z,1.02
2022-08-08T18:41:51.314Z,1.23
2022-08-08T18:43:59.203Z,1.05
2022-08-08T18:46:53.346Z,0.93
2022-08-08T18:48:25.993Z,1.70
2022-08-08T18:50:27.658Z,1.25
2022-08-08T18:52:30.438Z,1.17
2022-08-08T18:54:33.559Z,1.17
2022-08-08T18:56:35.518Z,1.08
2022-08-08T18:58:37.404Z,0.98
2022-08-08T19:00:38.958Z,1.42
2022-08-08T19:02:54.794Z,1.98
2022-08-08T19:04:57.872Z,1.50
2022-08-08T19:07:00.329Z,1.70
2022-08-08T19:09:02.794Z,1.33
2022-08-08T19:11:17.468Z,1.20
2022-08-08T19:13:25.178Z,1.13
2022-08-08T19:15:33.955Z,1.55
2022-08-08T19:17:48.115Z,1.33
2022-08-08T19:20:02.847Z,1.63
2022-08-08T19:22:04.882Z,1.20
2022-08-08T19:24:09.413Z,1.25
2022-08-08T19:26:30.392Z,1.30
2022-08-08T19:28:32.614Z,1.30
2022-08-08T19:30:39.403Z,1.50
2022-08-08T19:32:52.977Z,2.13
2022-08-08T19:34:55.224Z,1.50
2022-08-08T19:36:58.938Z,1.30
2022-08-08T19:41:03.612Z,1.88
2022-08-08T19:43:11.756Z,1.67
2022-08-08T19:45:14.320Z,1.42
2022-08-08T19:47:36.192Z,1.30
2022-08-08T19:49:43.400Z,1.70
2022-08-08T19:52:00.796Z,1.17
2022-08-08T19:54:02.792Z,1.77
2022-08-08T19:56:07.416Z,1.40
2022-08-08T19:58:14.239Z,1.35
2022-08-08T20:00:30.310Z,1.52
2022-08-08T20:02:33.515Z,1.30
2022-08-08T20:04:35.490Z,1.83
2022-08-08T20:06:37.074Z,1.67
2022-08-08T20:08:44.666Z,1.95
2022-08-08T20:10:49.845Z,1.55
2022-08-08T20:13:11.335Z,2.03
2022-08-08T20:15:16.248Z,1.83
2022-08-08T20:17:36.553Z,2.20
2022-08-08T20:19:42.221Z,1.40
2022-08-08T20:21:46.043Z,1.80
2022-08-08T20:23:47.562Z,1.50
2022-08-08T20:25:54.297Z,1.60
2022-08-08T20:27:56.105Z,1.27
2022-08-08T20:30:00.965Z,1.40
2022-08-08T20:32:10.589Z,1.45
2022-08-08T20:34:29.277Z,1.30
2022-08-08T20:36:32.275Z,1.80
2022-08-08T20:38:33.929Z,1.38
2022-08-08T20:40:38.988Z,1.27
2022-08-08T20:42:42.078Z,2.15
2022-08-08T20:44:45.328Z,1.30
2022-08-08T20:46:49.211Z,1.42
2022-08-08T20:48:51.561Z,1.42
2022-08-08T20:50:53.431Z,1.85
2022-08-08T20:54:58.454Z,1.35
2022-08-08T20:57:16.498Z,1.85
2022-08-08T20:59:20.997Z,1.13
2022-08-08T21:01:22.978Z,1.55
2022-08-08T21:03:29.641Z,1.63
2022-08-08T21:08:07.898Z,1.23
2022-08-08T21:10:02.397Z,1.08
2022-08-08T21:12:10.445Z,1.70
2022-08-08T21:14:12.492Z,1.42
2022-08-08T21:18:27.813Z,1.73
2022-08-08T21:20:34.460Z,1.73
2022-08-08T21:22:36.786Z,1.73
2022-08-08T21:24:39.460Z,1.50
2022-08-08T21:26:43.591Z,1.30
2022-08-08T21:28:46.530Z,1.77
2022-08-08T21:30:54.460Z,1.13
2022-08-08T21:32:56.283Z,1.77
2022-08-08T21:36:16.325Z,1.60
2022-08-08T21:37:19.892Z,1.67
2022-08-08T21:39:23.860Z,1.73
2022-08-08T21:41:53.774Z,1.80
2022-08-08T21:44:00.704Z,1.27
2022-08-08T21:48:07.692Z,1.73
2022-08-08T21:48:41.129Z,1.33
2022-08-08T21:50:46.039Z,1.27
2022-08-08T21:54:30.822Z,1.70
2022-08-08T21:57:41.802Z,2.33
2022-08-08T22:00:02.503Z,1.55
2022-08-08T22:02:05.606Z,1.50
2022-08-08T22:04:12.334Z,1.48
2022-08-08T22:06:13.840Z,1.50
2022-08-08T22:08:41.727Z,1.63
2022-08-08T22:10:45.230Z,1.60
2022-08-08T22:12:51.211Z,1.50
2022-08-08T22:14:53.489Z,1.75
2022-08-08T22:16:55.138Z,1.35
2022-08-08T22:18:57.477Z,1.77
2022-08-08T22:21:10.621Z,1.67
2022-08-08T22:23:15.709Z,1.50
2022-08-08T22:25:25.647Z,1.50
2022-08-08T22:28:00.821Z,1.58
2022-08-08T22:30:01.179Z,1.75
2022-08-08T22:32:04.237Z,1.83
2022-08-08T22:34:12.855Z,1.40
2022-08-08T22:36:16.311Z,1.52
2022-08-08T22:38:22.134Z,2.20
2022-08-08T22:40:23.975Z,1.73
2022-08-08T22:42:34.759Z,1.85
2022-08-08T22:44:37.094Z,1.33
2022-08-08T22:46:39.707Z,2.03
2022-08-08T22:48:41.507Z,1.88
2022-08-08T22:50:45.666Z,1.92
2022-08-08T22:52:58.811Z,2.63
2022-08-08T22:55:11.522Z,2.17
2022-08-08T22:57:18.252Z,2.78
2022-08-08T22:59:19.967Z,1.73
2022-08-08T23:02:03.076Z,3.53
2022-08-08T23:03:53.437Z,2.20
2022-08-08T23:05:56.379Z,2.27
2022-08-08T23:08:01.771Z,1.48
2022-08-08T23:10:04.267Z,1.77
2022-08-08T23:12:28.730Z,2.50
2022-08-08T23:14:28.691Z,1.92
2022-08-08T23:16:38.623Z,1.70
2022-08-08T23:18:43.882Z,2.03
2022-08-08T23:20:45.582Z,1.67
2022-08-08T23:22:56.803Z,1.75
2022-08-08T23:24:58.375Z,1.80
2022-08-08T23:27:00.299Z,2.67
2022-08-08T23:29:02.078Z,1.90
2022-08-08T23:31:03.639Z,1.85
2022-08-08T23:33:05.729Z,1.65
2022-08-08T23:35:17.249Z,2.15
2022-08-08T23:37:24.492Z,1.65
2022-08-08T23:39:32.108Z,2.22
2022-08-08T23:41:47.020Z,2.00
2022-08-08T23:43:50.865Z,2.05
2022-08-08T23:49:03.598Z,1.92
2022-08-08T23:49:08.546Z,2.20
2022-08-08T23:50:39.027Z,2.80
2022-08-08T23:52:41.503Z,2.47
2022-08-08T23:55:00.235Z,2.22
2022-08-08T23:57:25.467Z,2.15
2022-08-08T23:59:30.175Z,2.00
